Time;durP1;ratioP1;P1;durP2;ratioP2;P2;SDS_P1;SDS_P2;PMS_P1;PMS_P2;Temp;Humidity;BMP_temperature;BMP_pressure;BME280_temperature;BME280_humidity;BME280_pressure;Samples;Min_cycle;Max_cycle;Signal;HPM_P1;HPM_P2
2023/09/22 00:01:12;;;;;;;8.32;4.07;;;;;;;;;;5023189;28;20536;-54
2023/09/22 00:03:38;;;;;;;4.95;4.25;;;;;;;;;;5025932;28;20119;-55
2023/09/22 00:06:04;;;;;;;6.70;4.00;;;;;;;;;;5018293;28;20096;-54
2023/09/22 00:08:30;;;;;;;10.82;4.57;;;;;;;;;;5005701;28;20496;-55
2023/09/22 00:10:56;;;;;;;7.95;4.80;;;;;;;;;;5007378;28;20026;-54
2023/09/22 00:13:22;;;;;;;8.38;5.63;;;;;;;;;;5003562;28;20045;-52
2023/09/22 00:15:48;;;;;;;7.72;4.78;;;;;;;;;;5021575;28;20048;-53
2023/09/22 00:18:14;;;;;;;7.53;5.03;;;;;;;;;;5023158;28;20128;-54
2023/09/22 00:20:40;;;;;;;9.00;4.78;;;;;;;;;;5024992;28;20041;-55
2023/09/22 00:23:06;;;;;;;8.60;5.72;;;;;;;;;;5028934;28;20125;-54
2023/09/22 00:25:32;;;;;;;9.90;5.20;;;;;;;;;;5010442;28;20444;-53
2023/09/22 00:27:58;;;;;;;11.65;5.90;;;;;;;;;;5015031;28;20037;-55
2023/09/22 00:30:26;;;;;;;13.60;6.32;;;;;;;;;;5007320;28;20430;-58
2023/09/22 00:32:52;;;;;;;10.98;6.57;;;;;;;;;;5010224;28;20456;-54
2023/09/22 00:35:18;;;;;;;11.48;6.75;;;;;;;;;;5008133;28;20037;-55
2023/09/22 00:37:44;;;;;;;8.65;6.20;;;;;;;;;;5014068;28;20041;-53
2023/09/22 00:40:12;;;;;;;11.18;6.35;;;;;;;;;;5009105;28;20387;-54
2023/09/22 00:42:38;;;;;;;11.75;6.43;;;;;;;;;;5006216;28;20549;-52
2023/09/22 00:45:04;;;;;;;9.65;5.85;;;;;;;;;;5006273;28;20041;-50
2023/09/22 00:47:32;;;;;;;12.07;6.10;;;;;;;;;;5002943;28;20121;-51
2023/09/22 00:49:58;;;;;;;8.32;5.55;;;;;;;;;;5006125;28;20045;-48
2023/09/22 00:52:25;;;;;;;9.85;5.40;;;;;;;;;;4999465;28;20510;-49
2023/09/22 00:54:51;;;;;;;10.32;5.55;;;;;;;;;;5007170;28;20030;-50
2023/09/22 00:57:17;;;;;;;11.68;5.97;;;;;;;;;;5006069;28;20100;-52
2023/09/22 00:59:44;;;;;;;11.30;5.78;;;;;;;;;;5009563;28;20040;-50
2023/09/22 01:02:11;;;;;;;9.80;5.97;;;;;;;;;;5005042;28;20069;-52
2023/09/22 01:04:37;;;;;;;9.90;5.60;;;;;;;;;;5001631;28;20570;-52
2023/09/22 01:07:03;;;;;;;11.40;6.07;;;;;;;;;;5006355;28;20121;-51
2023/09/22 01:09:29;;;;;;;13.25;5.93;;;;;;;;;;5006022;28;20041;-53
2023/09/22 01:11:55;;;;;;;11.57;5.85;;;;;;;;;;5007522;28;20446;-52
2023/09/22 01:14:21;;;;;;;13.10;5.72;;;;;;;;;;5007247;28;20048;-52
2023/09/22 01:16:48;;;;;;;9.05;5.72;;;;;;;;;;5019388;28;20280;-49
2023/09/22 01:19:16;;;;;;;11.10;5.97;;;;;;;;;;5012409;28;20050;-53
2023/09/22 01:21:46;;;;;;;10.65;6.40;;;;;;;;;;5003520;28;20048;-52
2023/09/22 01:24:12;;;;;;;11.55;6.18;;;;;;;;;;4996086;28;20038;-51
2023/09/22 01:26:38;;;;;;;12.07;5.72;;;;;;;;;;5012693;28;20104;-52
2023/09/22 01:29:05;;;;;;;11.20;5.70;;;;;;;;;;5024054;28;20025;-49
2023/09/22 01:31:32;;;;;;;11.00;5.75;;;;;;;;;;5024137;28;20025;-52
2023/09/22 01:33:58;;;;;;;9.98;5.22;;;;;;;;;;5011499;28;20073;-52
2023/09/22 01:36:25;;;;;;;7.75;4.85;;;;;;;;;;5005457;28;20065;-52
2023/09/22 01:38:51;;;;;;;8.38;4.82;;;;;;;;;;5008834;28;20096;-50
2023/09/22 01:41:17;;;;;;;9.07;5.40;;;;;;;;;;5006057;28;20034;-50
2023/09/22 01:43:43;;;;;;;11.73;6.03;;;;;;;;;;5011144;28;20121;-51
2023/09/22 01:46:09;;;;;;;9.70;4.90;;;;;;;;;;5024675;28;20575;-51
2023/09/22 01:48:35;;;;;;;13.13;6.00;;;;;;;;;;5026334;28;20069;-53
2023/09/22 01:51:04;;;;;;;9.75;5.57;;;;;;;;;;5024766;28;20319;-50
2023/09/22 01:53:30;;;;;;;14.45;5.55;;;;;;;;;;5023030;28;20123;-53
2023/09/22 01:55:56;;;;;;;13.48;6.00;;;;;;;;;;5011964;28;20099;-53
2023/09/22 01:58:22;;;;;;;10.98;5.70;;;;;;;;;;5001712;28;20041;-54
2023/09/22 02:00:51;;;;;;;12.45;5.68;;;;;;;;;;5010934;28;20382;-55
2023/09/22 02:03:18;;;;;;;14.77;5.63;;;;;;;;;;4998009;28;20044;-50
2023/09/22 02:05:44;;;;;;;11.27;5.63;;;;;;;;;;5004412;28;20439;-52
2023/09/22 02:08:10;;;;;;;11.55;5.65;;;;;;;;;;4991651;28;20042;-51
2023/09/22 02:10:36;;;;;;;12.77;5.75;;;;;;;;;;4994933;28;20030;-55
2023/09/22 02:13:04;;;;;;;9.00;5.40;;;;;;;;;;4988997;28;20026;-55
2023/09/22 02:15:30;;;;;;;15.73;6.07;;;;;;;;;;5028310;28;20033;-54
2023/09/22 02:17:56;;;;;;;8.45;5.47;;;;;;;;;;5039247;28;20442;-53
2023/09/22 02:20:22;;;;;;;7.80;5.05;;;;;;;;;;5020894;28;20037;-54
2023/09/22 02:22:53;;;;;;;9.15;4.93;;;;;;;;;;5026752;28;20037;-53
2023/09/22 02:25:19;;;;;;;10.48;5.25;;;;;;;;;;5025089;28;20576;-54
2023/09/22 02:27:45;;;;;;;7.78;4.65;;;;;;;;;;5032270;28;20580;-55
2023/09/22 02:30:12;;;;;;;9.02;4.18;;;;;;;;;;5026376;28;20111;-55
2023/09/22 02:32:40;;;;;;;9.77;4.75;;;;;;;;;;5021378;28;20029;-57
2023/09/22 02:35:06;;;;;;;9.38;4.47;;;;;;;;;;5041873;28;20071;-54
2023/09/22 02:37:32;;;;;;;13.32;4.57;;;;;;;;;;5008683;28;20049;-54
2023/09/22 02:39:58;;;;;;;6.90;4.07;;;;;;;;;;4999371;28;20026;-52
2023/09/22 02:42:24;;;;;;;7.28;4.60;;;;;;;;;;4997647;28;20482;-55
2023/09/22 02:44:50;;;;;;;6.68;4.57;;;;;;;;;;4997498;28;20046;-53
2023/09/22 02:47:16;;;;;;;11.30;4.35;;;;;;;;;;5000673;28;20038;-53
2023/09/22 02:49:43;;;;;;;11.10;4.38;;;;;;;;;;5027401;28;20033;-55
2023/09/22 02:52:09;;;;;;;9.90;4.53;;;;;;;;;;5043582;28;20095;-55
2023/09/22 02:54:35;;;;;;;8.30;4.20;;;;;;;;;;5011543;28;20045;-55
2023/09/22 02:57:01;;;;;;;10.48;4.25;;;;;;;;;;4996130;28;20409;-54
2023/09/22 02:59:27;;;;;;;5.78;3.75;;;;;;;;;;5021584;28;20040;-53
2023/09/22 03:01:53;;;;;;;9.77;4.20;;;;;;;;;;5009373;28;20456;-53
2023/09/22 03:04:19;;;;;;;8.95;4.20;;;;;;;;;;5000797;28;20125;-54
2023/09/22 03:06:45;;;;;;;11.48;4.28;;;;;;;;;;5011267;28;20390;-53
2023/09/22 03:09:11;;;;;;;9.45;3.65;;;;;;;;;;5003306;28;20029;-55
2023/09/22 03:11:40;;;;;;;11.75;4.28;;;;;;;;;;5009482;28;20087;-52
2023/09/22 03:14:06;;;;;;;9.77;4.65;;;;;;;;;;5030042;28;20061;-55
2023/09/22 03:16:32;;;;;;;9.73;5.00;;;;;;;;;;5024421;28;20443;-54
2023/09/22 03:18:58;;;;;;;9.48;4.32;;;;;;;;;;5008311;28;20038;-53
2023/09/22 03:21:24;;;;;;;7.47;4.40;;;;;;;;;;5028491;28;20037;-55
2023/09/22 03:23:51;;;;;;;9.35;4.10;;;;;;;;;;5032471;28;20052;-51
2023/09/22 03:26:20;;;;;;;6.72;4.57;;;;;;;;;;5032904;28;20049;-49
2023/09/22 03:28:47;;;;;;;10.85;4.03;;;;;;;;;;5018821;28;20026;-52
2023/09/22 03:31:12;;;;;;;7.70;4.45;;;;;;;;;;5021216;28;20475;-51
2023/09/22 03:33:42;;;;;;;9.85;4.40;;;;;;;;;;5028746;28;20033;-50
2023/09/22 03:36:12;;;;;;;7.40;4.07;;;;;;;;;;5005505;28;20034;-50
2023/09/22 03:38:39;;;;;;;8.25;4.18;;;;;;;;;;5007068;28;20060;-52
2023/09/22 03:41:05;;;;;;;8.25;3.40;;;;;;;;;;5031336;28;20030;-50
2023/09/22 03:43:32;;;;;;;5.65;3.55;;;;;;;;;;5024893;28;20056;-50
2023/09/22 03:45:58;;;;;;;8.50;3.88;;;;;;;;;;5022755;28;20029;-50
2023/09/22 03:48:24;;;;;;;7.18;3.40;;;;;;;;;;5026143;28;20037;-52
2023/09/22 03:50:50;;;;;;;7.70;3.33;;;;;;;;;;5036451;28;20075;-48
2023/09/22 03:53:16;;;;;;;10.02;4.05;;;;;;;;;;5025579;28;20065;-52
2023/09/22 03:55:44;;;;;;;6.78;3.42;;;;;;;;;;5027533;28;20029;-50
2023/09/22 03:58:10;;;;;;;8.55;3.83;;;;;;;;;;5026735;28;20401;-52
2023/09/22 04:00:36;;;;;;;8.13;4.03;;;;;;;;;;5034265;28;20434;-50
2023/09/22 04:03:03;;;;;;;10.60;4.30;;;;;;;;;;5030093;28;20029;-51
2023/09/22 04:05:29;;;;;;;10.38;3.53;;;;;;;;;;5030139;28;20504;-50
2023/09/22 04:07:57;;;;;;;11.07;3.83;;;;;;;;;;5032875;28;20647;-49
2023/09/22 04:10:23;;;;;;;7.18;4.40;;;;;;;;;;5035454;28;20033;-49
2023/09/22 04:12:50;;;;;;;12.00;4.45;;;;;;;;;;5038631;28;20036;-49
2023/09/22 04:15:16;;;;;;;10.40;4.22;;;;;;;;;;5028562;28;20396;-52
2023/09/22 04:17:42;;;;;;;10.70;3.30;;;;;;;;;;5023234;28;20216;-50
2023/09/22 04:20:11;;;;;;;8.10;3.47;;;;;;;;;;5029499;28;20034;-48
2023/09/22 04:22:37;;;;;;;16.42;4.10;;;;;;;;;;5028848;28;20033;-51
2023/09/22 04:25:18;;;;;;;11.02;4.07;;;;;;;;;;5022821;28;20078;-49
2023/09/22 04:27:53;;;;;;;7.00;3.38;;;;;;;;;;5025046;28;20042;-51
2023/09/22 04:30:20;;;;;;;7.85;3.42;;;;;;;;;;5019761;28;20107;-50
2023/09/22 04:32:51;;;;;;;9.30;3.80;;;;;;;;;;5007191;28;20037;-49
2023/09/22 04:35:18;;;;;;;12.68;3.88;;;;;;;;;;5026268;28;20052;-47
2023/09/22 04:37:44;;;;;;;10.70;3.30;;;;;;;;;;5031943;28;20042;-49
2023/09/22 04:40:22;;;;;;;6.32;2.78;;;;;;;;;;5020002;28;20115;-50
2023/09/22 04:42:49;;;;;;;6.57;3.20;;;;;;;;;;5026501;28;20485;-52
2023/09/22 04:45:15;;;;;;;7.18;3.13;;;;;;;;;;5028648;28;20064;-51
2023/09/22 04:47:41;;;;;;;7.57;2.88;;;;;;;;;;5026412;28;20492;-48
2023/09/22 04:50:08;;;;;;;10.68;3.10;;;;;;;;;;5022380;28;20034;-50
2023/09/22 04:52:34;;;;;;;6.95;3.08;;;;;;;;;;5014840;28;20856;-50
2023/09/22 04:55:00;;;;;;;6.78;3.10;;;;;;;;;;5022226;28;20046;-50
2023/09/22 04:57:26;;;;;;;8.65;3.35;;;;;;;;;;4994516;28;20045;-51
2023/09/22 04:59:54;;;;;;;8.70;2.80;;;;;;;;;;5004185;28;20038;-52
2023/09/22 05:02:20;;;;;;;7.55;3.22;;;;;;;;;;4998893;28;20045;-50
2023/09/22 05:04:47;;;;;;;7.43;2.72;;;;;;;;;;5012316;28;20038;-51
2023/09/22 05:07:13;;;;;;;11.48;3.08;;;;;;;;;;4995212;28;20033;-49
2023/09/22 05:09:39;;;;;;;7.43;2.92;;;;;;;;;;5002004;28;20046;-50
2023/09/22 05:12:05;;;;;;;12.30;3.28;;;;;;;;;;5001716;28;20212;-48
2023/09/22 05:14:31;;;;;;;7.43;3.30;;;;;;;;;;4992657;28;20466;-51
2023/09/22 05:16:57;;;;;;;7.10;2.90;;;;;;;;;;4997665;28;20025;-50
2023/09/22 05:19:23;;;;;;;7.25;2.90;;;;;;;;;;5002052;28;21154;-51
2023/09/22 05:21:49;;;;;;;7.80;3.00;;;;;;;;;;5014218;28;20649;-49
2023/09/22 05:24:15;;;;;;;9.48;3.38;;;;;;;;;;5013799;28;20052;-51
2023/09/22 05:26:41;;;;;;;5.38;2.90;;;;;;;;;;5022832;28;20048;-51
2023/09/22 05:29:07;;;;;;;9.05;3.38;;;;;;;;;;5033862;28;20090;-51
2023/09/22 05:31:36;;;;;;;7.03;3.22;;;;;;;;;;5033147;28;20045;-52
2023/09/22 05:34:02;;;;;;;5.15;2.85;;;;;;;;;;5029865;28;20029;-53
2023/09/22 05:36:29;;;;;;;6.15;2.83;;;;;;;;;;5031810;28;20055;-48
2023/09/22 05:38:56;;;;;;;7.97;3.00;;;;;;;;;;5027708;28;20033;-50
2023/09/22 05:41:22;;;;;;;8.07;2.97;;;;;;;;;;5029103;28;20495;-47
2023/09/22 05:43:49;;;;;;;8.25;3.00;;;;;;;;;;5023265;28;20026;-55
2023/09/22 05:46:15;;;;;;;6.22;2.83;;;;;;;;;;5027068;28;20042;-51
2023/09/22 05:48:42;;;;;;;8.02;2.63;;;;;;;;;;5027391;28;20056;-54
2023/09/22 05:51:07;;;;;;;9.68;3.50;;;;;;;;;;5019232;28;20044;-53
2023/09/22 05:53:35;;;;;;;7.20;2.90;;;;;;;;;;5010430;28;20053;-54
2023/09/22 05:56:08;;;;;;;9.57;3.20;;;;;;;;;;5006128;28;20524;-55
2023/09/22 05:58:34;;;;;;;10.73;3.78;;;;;;;;;;5035332;28;20053;-54
2023/09/22 06:01:07;;;;;;;9.80;3.17;;;;;;;;;;5022687;28;20402;-58
2023/09/22 06:03:34;;;;;;;11.02;3.22;;;;;;;;;;5007172;28;20095;-51
2023/09/22 06:06:04;;;;;;;8.13;3.08;;;;;;;;;;4999552;28;20037;-50
2023/09/22 06:08:31;;;;;;;8.60;2.92;;;;;;;;;;5024185;28;20109;-51
2023/09/22 06:11:01;;;;;;;14.90;3.47;;;;;;;;;;4998582;28;20062;-47
2023/09/22 06:13:27;;;;;;;6.70;2.67;;;;;;;;;;5041759;28;20035;-52
2023/09/22 06:15:53;;;;;;;6.75;2.58;;;;;;;;;;5029226;28;20037;-50
2023/09/22 06:18:19;;;;;;;8.90;3.00;;;;;;;;;;5028240;28;20087;-49
2023/09/22 06:20:45;;;;;;;10.73;3.08;;;;;;;;;;5032889;28;20025;-51
2023/09/22 06:23:11;;;;;;;18.73;13.85;;;;;;;;;;5019724;28;20045;-50
2023/09/22 06:25:37;;;;;;;12.95;5.65;;;;;;;;;;5024654;28;20048;-51
2023/09/22 06:28:05;;;;;;;5.93;2.65;;;;;;;;;;5029042;28;20401;-51
2023/09/22 06:30:34;;;;;;;1.02;0.98;;;;;;;;;;5027057;28;20033;-50
2023/09/22 06:33:01;;;;;;;8.32;2.30;;;;;;;;;;5027423;28;20565;-51
2023/09/22 06:35:26;;;;;;;8.23;2.83;;;;;;;;;;5029980;28;20116;-47
2023/09/22 06:37:53;;;;;;;8.50;2.45;;;;;;;;;;5022366;28;20560;-48
2023/09/22 06:40:19;;;;;;;6.68;2.58;;;;;;;;;;5024185;28;20614;-49
2023/09/22 06:42:45;;;;;;;6.82;2.70;;;;;;;;;;5022631;28;20121;-48
2023/09/22 06:45:12;;;;;;;12.73;2.80;;;;;;;;;;5024042;28;20136;-47
2023/09/22 06:47:38;;;;;;;5.68;2.40;;;;;;;;;;5024906;28;20040;-52
2023/09/22 06:50:09;;;;;;;7.43;2.65;;;;;;;;;;5020878;28;20034;-51
2023/09/22 06:52:41;;;;;;;6.72;2.67;;;;;;;;;;5005087;28;20630;-48
2023/09/22 06:55:13;;;;;;;16.38;3.05;;;;;;;;;;5004027;28;20044;-50
2023/09/22 06:57:42;;;;;;;4.57;2.42;;;;;;;;;;5011568;28;20490;-51
2023/09/22 07:00:15;;;;;;;7.57;2.60;;;;;;;;;;5002718;28;20464;-51
2023/09/22 07:02:47;;;;;;;7.22;2.95;;;;;;;;;;5002980;28;20451;-51
2023/09/22 07:05:13;;;;;;;7.05;2.20;;;;;;;;;;4999656;28;20041;-50
2023/09/22 07:07:39;;;;;;;10.27;2.92;;;;;;;;;;4997085;28;20426;-48
2023/09/22 07:10:09;;;;;;;8.15;2.63;;;;;;;;;;5000488;28;20192;-48
2023/09/22 07:12:36;;;;;;;5.43;2.33;;;;;;;;;;5003653;28;20033;-51
2023/09/22 07:15:02;;;;;;;8.10;2.35;;;;;;;;;;5003590;28;20416;-50
2023/09/22 07:17:27;;;;;;;7.78;2.78;;;;;;;;;;5004836;28;20034;-49
2023/09/22 07:19:53;;;;;;;7.15;2.20;;;;;;;;;;5003093;28;20454;-50
2023/09/22 07:22:19;;;;;;;8.02;2.75;;;;;;;;;;5000698;28;20038;-48
2023/09/22 07:24:46;;;;;;;10.50;2.40;;;;;;;;;;4992932;28;20082;-50
2023/09/22 07:27:12;;;;;;;9.70;2.00;;;;;;;;;;4997211;28;20034;-48
2023/09/22 07:29:38;;;;;;;6.35;1.98;;;;;;;;;;5000103;28;20038;-49
2023/09/22 07:32:04;;;;;;;4.78;1.80;;;;;;;;;;5004768;28;20033;-48
2023/09/22 07:34:31;;;;;;;9.50;2.00;;;;;;;;;;5004603;28;20038;-47
2023/09/22 07:36:56;;;;;;;6.95;2.20;;;;;;;;;;5006741;28;20042;-50
2023/09/22 07:39:22;;;;;;;7.15;1.67;;;;;;;;;;5004206;28;20038;-50
2023/09/22 07:41:49;;;;;;;8.38;1.73;;;;;;;;;;5004064;28;20485;-48
2023/09/22 07:44:21;;;;;;;7.00;1.55;;;;;;;;;;5023804;28;20041;-49
2023/09/22 07:46:47;;;;;;;8.82;1.77;;;;;;;;;;5024031;28;20053;-50
2023/09/22 07:49:13;;;;;;;7.55;1.30;;;;;;;;;;4985859;28;20045;-51
2023/09/22 07:51:39;;;;;;;8.88;1.70;;;;;;;;;;4987230;28;20027;-52
2023/09/22 07:54:07;;;;;;;12.25;5.82;;;;;;;;;;5001095;28;20038;-49
2023/09/22 07:56:33;;;;;;;4.68;1.45;;;;;;;;;;5005392;28;20033;-48
2023/09/22 07:58:59;;;;;;;0.00;0.00;;;;;;;;;;5023818;28;20041;-50
2023/09/22 08:01:26;;;;;;;1.15;0.52;;;;;;;;;;5025380;28;20046;-50
2023/09/22 08:03:52;;;;;;;4.72;1.52;;;;;;;;;;5022223;28;20029;-49
2023/09/22 08:06:18;;;;;;;4.55;1.20;;;;;;;;;;5021621;28;20046;-50
2023/09/22 08:08:44;;;;;;;6.55;1.42;;;;;;;;;;5026061;28;20492;-48
2023/09/22 08:11:10;;;;;;;8.20;1.70;;;;;;;;;;5025107;28;20116;-49
2023/09/22 08:13:36;;;;;;;5.03;1.42;;;;;;;;;;5027360;28;20040;-50
2023/09/22 08:16:06;;;;;;;6.50;1.38;;;;;;;;;;5024270;28;20432;-51
2023/09/22 08:18:37;;;;;;;3.70;1.55;;;;;;;;;;5024854;28;20029;-50
2023/09/22 08:21:04;;;;;;;4.45;1.55;;;;;;;;;;5024514;28;20030;-49
2023/09/22 08:23:30;;;;;;;6.55;1.38;;;;;;;;;;5024331;28;20033;-50
2023/09/22 08:25:56;;;;;;;5.03;1.15;;;;;;;;;;5024667;28;20044;-51
2023/09/22 08:28:22;;;;;;;5.03;1.33;;;;;;;;;;5024530;28;20049;-49
2023/09/22 08:30:48;;;;;;;4.30;1.30;;;;;;;;;;5027341;28;20030;-52
2023/09/22 08:33:14;;;;;;;8.05;1.58;;;;;;;;;;5022207;28;20033;-50
2023/09/22 08:35:40;;;;;;;3.97;1.30;;;;;;;;;;5022961;28;20037;-48
2023/09/22 08:38:07;;;;;;;4.53;1.20;;;;;;;;;;5022756;28;20048;-51
2023/09/22 08:40:33;;;;;;;10.73;1.55;;;;;;;;;;5025828;28;20124;-49
2023/09/22 08:43:02;;;;;;;4.28;1.35;;;;;;;;;;5024358;28;20053;-51
2023/09/22 08:45:28;;;;;;;6.28;1.67;;;;;;;;;;5027039;28;20544;-49
2023/09/22 08:47:54;;;;;;;8.15;1.17;;;;;;;;;;5026022;28;20505;-50
2023/09/22 08:50:20;;;;;;;1.55;0.50;;;;;;;;;;5029128;28;20034;-51
2023/09/22 08:52:49;;;;;;;8.40;1.30;;;;;;;;;;5029168;28;20452;-51
2023/09/22 08:55:15;;;;;;;6.70;1.02;;;;;;;;;;5026109;28;20040;-52
2023/09/22 08:57:44;;;;;;;7.90;3.13;;;;;;;;;;5018641;28;20072;-52
2023/09/22 09:00:18;;;;;;;5.03;1.02;;;;;;;;;;5025131;28;20044;-50
2023/09/22 09:02:44;;;;;;;5.80;1.00;;;;;;;;;;5027462;28;20088;-51
2023/09/22 09:05:25;;;;;;;3.08;1.00;;;;;;;;;;5027454;28;20034;-50
2023/09/22 09:07:52;;;;;;;5.32;1.30;;;;;;;;;;5026192;28;20060;-51
2023/09/22 09:10:28;;;;;;;6.97;1.23;;;;;;;;;;5024921;28;20445;-51
2023/09/22 09:12:55;;;;;;;6.72;1.42;;;;;;;;;;5025754;28;20151;-50
2023/09/22 09:15:28;;;;;;;3.42;0.80;;;;;;;;;;5025016;28;20048;-50
2023/09/22 09:18:13;;;;;;;5.20;1.13;;;;;;;;;;5022274;28;20128;-51
2023/09/22 09:20:40;;;;;;;3.50;1.00;;;;;;;;;;5023703;28;20041;-50
2023/09/22 09:23:17;;;;;;;4.13;1.20;;;;;;;;;;5025825;28;20042;-51
2023/09/22 09:25:50;;;;;;;2.63;1.27;;;;;;;;;;5024870;28;20068;-49
2023/09/22 09:28:17;;;;;;;6.82;1.50;;;;;;;;;;5024235;28;20567;-52
2023/09/22 09:30:59;;;;;;;4.07;1.02;;;;;;;;;;5020555;28;20062;-51
2023/09/22 09:33:30;;;;;;;6.90;1.20;;;;;;;;;;5026146;28;21593;-50
2023/09/22 09:35:56;;;;;;;3.20;1.73;;;;;;;;;;5027167;28;20073;-52
2023/09/22 09:38:26;;;;;;;0.00;0.00;;;;;;;;;;5026654;28;20038;-52
2023/09/22 09:40:52;;;;;;;1.60;0.52;;;;;;;;;;5025836;28;20033;-51
2023/09/22 09:43:19;;;;;;;5.55;1.23;;;;;;;;;;5024776;28;20246;-55
2023/09/22 09:45:46;;;;;;;7.80;1.10;;;;;;;;;;5026135;28;20050;-53
2023/09/22 09:48:16;;;;;;;7.97;1.20;;;;;;;;;;5027282;28;20136;-54
2023/09/22 09:50:51;;;;;;;3.05;1.23;;;;;;;;;;5027445;28;20037;-54
2023/09/22 09:53:31;;;;;;;7.63;1.60;;;;;;;;;;5024442;28;20386;-54
2023/09/22 09:55:59;;;;;;;4.90;1.20;;;;;;;;;;5025109;28;20715;-54
2023/09/22 09:58:29;;;;;;;5.22;1.20;;;;;;;;;;5028505;28;20038;-53
2023/09/22 10:00:56;;;;;;;6.03;1.73;;;;;;;;;;5021321;28;20034;-53
2023/09/22 10:03:22;;;;;;;4.63;1.42;;;;;;;;;;5025735;28;20069;-52
2023/09/22 10:05:51;;;;;;;6.35;1.00;;;;;;;;;;5025925;28;20400;-51
2023/09/22 10:08:19;;;;;;;5.05;1.23;;;;;;;;;;5027255;28;20037;-49
2023/09/22 10:10:45;;;;;;;5.47;1.00;;;;;;;;;;5024743;28;20121;-48
2023/09/22 10:13:11;;;;;;;11.23;2.58;;;;;;;;;;5025251;28;20065;-50
2023/09/22 10:15:51;;;;;;;7.32;2.53;;;;;;;;;;5029581;28;20115;-52
2023/09/22 10:18:17;;;;;;;3.63;1.30;;;;;;;;;;5021205;28;20550;-52
2023/09/22 10:20:46;;;;;;;3.47;1.15;;;;;;;;;;5025909;28;20112;-51
2023/09/22 10:23:17;;;;;;;3.40;1.05;;;;;;;;;;5026872;28;20037;-52
2023/09/22 10:25:43;;;;;;;5.00;1.00;;;;;;;;;;5026188;28;20033;-52
2023/09/22 10:28:10;;;;;;;5.40;1.10;;;;;;;;;;5025819;28;20040;-51
2023/09/22 10:30:42;;;;;;;3.83;0.93;;;;;;;;;;5027440;28;20407;-52
2023/09/22 10:33:26;;;;;;;11.05;1.13;;;;;;;;;;5026095;28;20029;-52
2023/09/22 10:35:53;;;;;;;3.70;1.00;;;;;;;;;;5023029;28;20501;-50
2023/09/22 10:38:22;;;;;;;3.63;1.20;;;;;;;;;;5009701;28;20033;-48
2023/09/22 10:41:00;;;;;;;3.85;0.98;;;;;;;;;;5007731;28;20125;-51
2023/09/22 10:43:30;;;;;;;3.65;1.20;;;;;;;;;;5003824;28;20928;-53
2023/09/22 10:45:56;;;;;;;5.93;1.10;;;;;;;;;;5000696;28;20060;-50
2023/09/22 10:48:22;;;;;;;3.03;1.00;;;;;;;;;;5006920;28;20034;-51
2023/09/22 10:50:53;;;;;;;3.75;1.13;;;;;;;;;;5004497;28;20071;-49
2023/09/22 10:53:20;;;;;;;5.95;1.10;;;;;;;;;;4995037;28;20052;-50
2023/09/22 10:55:46;;;;;;;4.63;1.10;;;;;;;;;;5005975;28;20064;-52
2023/09/22 10:58:12;;;;;;;3.88;1.17;;;;;;;;;;5005827;28;20041;-52
2023/09/22 11:00:41;;;;;;;3.38;1.15;;;;;;;;;;5005169;28;20104;-53
2023/09/22 11:03:11;;;;;;;4.15;1.23;;;;;;;;;;4996023;28;20444;-51
2023/09/22 11:05:41;;;;;;;3.78;1.05;;;;;;;;;;5003039;28;20592;-53
2023/09/22 11:08:12;;;;;;;3.47;1.23;;;;;;;;;;5006083;28;20037;-53
2023/09/22 11:10:38;;;;;;;3.15;0.90;;;;;;;;;;5006947;28;20030;-52
2023/09/22 11:13:04;;;;;;;4.18;1.17;;;;;;;;;;5026377;28;20049;-53
2023/09/22 11:15:30;;;;;;;2.92;1.10;;;;;;;;;;5014090;28;20037;-50
2023/09/22 11:17:56;;;;;;;3.97;1.00;;;;;;;;;;5001720;28;20050;-50
2023/09/22 11:20:27;;;;;;;2.28;0.93;;;;;;;;;;5005013;28;20042;-52
2023/09/22 11:22:53;;;;;;;3.88;1.10;;;;;;;;;;5019209;28;20061;-53
2023/09/22 11:25:21;;;;;;;7.18;1.35;;;;;;;;;;5025817;28;20493;-50
2023/09/22 11:27:48;;;;;;;4.47;1.95;;;;;;;;;;5027855;28;20643;-49
2023/09/22 11:30:16;;;;;;;2.80;1.00;;;;;;;;;;5041667;28;20033;-50
2023/09/22 11:32:43;;;;;;;3.92;0.90;;;;;;;;;;5025636;28;20136;-50
2023/09/22 11:35:10;;;;;;;2.65;0.95;;;;;;;;;;5023591;28;20035;-52
2023/09/22 11:37:37;;;;;;;4.28;1.25;;;;;;;;;;5006082;28;20030;-49
2023/09/22 11:40:13;;;;;;;6.57;1.10;;;;;;;;;;5006237;28;20069;-54
2023/09/22 11:42:39;;;;;;;2.58;1.00;;;;;;;;;;5001038;28;20145;-49
2023/09/22 11:45:06;;;;;;;3.70;1.00;;;;;;;;;;5003347;28;20113;-52
2023/09/22 11:47:32;;;;;;;5.57;1.27;;;;;;;;;;5003942;28;20034;-50
2023/09/22 11:49:58;;;;;;;4.78;1.00;;;;;;;;;;5003588;28;20022;-47
2023/09/22 11:52:30;;;;;;;3.88;1.27;;;;;;;;;;5001689;28;20038;-52
2023/09/22 11:54:57;;;;;;;1.98;0.98;;;;;;;;;;5021012;28;20083;-52
2023/09/22 11:57:23;;;;;;;5.40;1.00;;;;;;;;;;5005509;28;20034;-51
2023/09/22 11:59:58;;;;;;;7.10;1.30;;;;;;;;;;5008658;28;20034;-51
2023/09/22 12:02:24;;;;;;;3.40;0.90;;;;;;;;;;5005066;28;20038;-51
2023/09/22 12:04:52;;;;;;;1.98;1.00;;;;;;;;;;4998613;28;20050;-51
2023/09/22 12:07:19;;;;;;;2.95;0.90;;;;;;;;;;5002664;28;20545;-52
2023/09/22 12:09:45;;;;;;;2.88;0.93;;;;;;;;;;5004804;28;20065;-53
2023/09/22 12:12:12;;;;;;;5.38;1.27;;;;;;;;;;5002468;28;20472;-53
2023/09/22 12:14:38;;;;;;;4.35;1.30;;;;;;;;;;5004667;28;21062;-52
2023/09/22 12:17:04;;;;;;;4.15;1.35;;;;;;;;;;5005055;28;20113;-52
2023/09/22 12:19:30;;;;;;;3.50;0.90;;;;;;;;;;5008825;28;20626;-51
2023/09/22 12:21:56;;;;;;;2.80;1.08;;;;;;;;;;5006913;28;20038;-54
2023/09/22 12:24:22;;;;;;;2.80;1.05;;;;;;;;;;5009543;28;20572;-54
2023/09/22 12:26:48;;;;;;;4.82;1.30;;;;;;;;;;5007605;28;20053;-53
2023/09/22 12:29:16;;;;;;;4.85;1.05;;;;;;;;;;5008852;28;20056;-55
2023/09/22 12:31:42;;;;;;;3.95;0.93;;;;;;;;;;5008556;28;20084;-55
2023/09/22 12:34:08;;;;;;;4.15;1.52;;;;;;;;;;5005819;28;20029;-54
2023/09/22 12:36:34;;;;;;;4.53;1.38;;;;;;;;;;5008033;28;20049;-54
2023/09/22 12:39:01;;;;;;;3.42;1.05;;;;;;;;;;5008081;28;20041;-54
2023/09/22 12:41:27;;;;;;;2.72;0.93;;;;;;;;;;5002782;28;20489;-54
2023/09/22 12:43:54;;;;;;;6.88;1.50;;;;;;;;;;5013612;28;20022;-54
2023/09/22 12:46:20;;;;;;;6.15;1.50;;;;;;;;;;5032111;28;20410;-55
2023/09/22 12:48:46;;;;;;;4.90;1.10;;;;;;;;;;5029554;28;20041;-55
2023/09/22 12:51:12;;;;;;;5.15;1.30;;;;;;;;;;5029346;28;20519;-55
2023/09/22 12:53:38;;;;;;;2.33;1.10;;;;;;;;;;5032448;28;20053;-55
2023/09/22 12:56:04;;;;;;;2.78;1.20;;;;;;;;;;5028977;28;20400;-55
2023/09/22 12:58:31;;;;;;;2.17;1.13;;;;;;;;;;5013922;28;20492;-55
2023/09/22 13:01:03;;;;;;;2.95;1.30;;;;;;;;;;5007154;28;20034;-54
2023/09/22 13:03:29;;;;;;;5.70;1.07;;;;;;;;;;5003081;28;20474;-53
2023/09/22 13:05:56;;;;;;;3.25;1.20;;;;;;;;;;5002353;28;20091;-54
2023/09/22 13:08:22;;;;;;;2.80;1.38;;;;;;;;;;5006948;28;20482;-55
2023/09/22 13:10:49;;;;;;;4.80;2.15;;;;;;;;;;4998994;28;20556;-54
2023/09/22 13:13:15;;;;;;;2.63;1.20;;;;;;;;;;5003468;28;20045;-54
2023/09/22 13:15:42;;;;;;;3.53;1.33;;;;;;;;;;5008436;28;20038;-55
2023/09/22 13:18:10;;;;;;;4.32;1.25;;;;;;;;;;5002033;28;20045;-55
2023/09/22 13:20:36;;;;;;;2.45;1.17;;;;;;;;;;5004107;28;20030;-54
2023/09/22 13:23:02;;;;;;;1.83;0.93;;;;;;;;;;5006565;28;20218;-56
2023/09/22 13:25:29;;;;;;;4.07;1.30;;;;;;;;;;4999329;28;20038;-55
2023/09/22 13:27:55;;;;;;;2.83;1.20;;;;;;;;;;5006398;28;20042;-54
2023/09/22 13:30:21;;;;;;;3.20;1.02;;;;;;;;;;5018939;28;20374;-53
2023/09/22 13:32:48;;;;;;;4.35;1.20;;;;;;;;;;5021142;28;20520;-52
2023/09/22 13:35:14;;;;;;;2.42;1.00;;;;;;;;;;5007852;28;20022;-52
2023/09/22 13:37:40;;;;;;;1.45;0.70;;;;;;;;;;5001869;28;20037;-53
2023/09/22 13:40:11;;;;;;;2.78;1.00;;;;;;;;;;5008367;28;20033;-52
2023/09/22 13:42:37;;;;;;;5.35;1.30;;;;;;;;;;5009312;28;20030;-53
2023/09/22 13:45:05;;;;;;;7.88;1.25;;;;;;;;;;5008094;28;20038;-51
2023/09/22 13:47:31;;;;;;;3.05;1.13;;;;;;;;;;5006650;28;20498;-52
2023/09/22 13:49:57;;;;;;;3.55;1.13;;;;;;;;;;5004288;28;20034;-52
2023/09/22 13:52:23;;;;;;;2.95;0.93;;;;;;;;;;5008658;28;20137;-51
2023/09/22 13:54:49;;;;;;;4.10;1.17;;;;;;;;;;5020952;28;20037;-49
2023/09/22 13:57:16;;;;;;;3.47;1.02;;;;;;;;;;5030046;28;20404;-49
2023/09/22 13:59:43;;;;;;;3.65;0.90;;;;;;;;;;5032565;28;20037;-50
2023/09/22 14:02:09;;;;;;;2.15;1.00;;;;;;;;;;5031144;28;20030;-53
2023/09/22 14:04:35;;;;;;;4.38;1.17;;;;;;;;;;5024995;28;20037;-50
2023/09/22 14:07:01;;;;;;;2.30;1.17;;;;;;;;;;5026901;28;20053;-53
2023/09/22 14:09:28;;;;;;;5.32;1.00;;;;;;;;;;5031732;28;20029;-53
2023/09/22 14:11:54;;;;;;;1.90;0.88;;;;;;;;;;5028835;28;20033;-52
2023/09/22 14:14:21;;;;;;;4.40;1.10;;;;;;;;;;5027579;28;20041;-48
2023/09/22 14:16:51;;;;;;;6.53;1.35;;;;;;;;;;5027673;28;20112;-47
2023/09/22 14:19:18;;;;;;;4.05;1.10;;;;;;;;;;5026366;28;20025;-47
2023/09/22 14:21:44;;;;;;;4.55;1.02;;;;;;;;;;5027737;28;20160;-47
2023/09/22 14:24:11;;;;;;;1.45;0.88;;;;;;;;;;5027719;28;20029;-48
2023/09/22 14:26:37;;;;;;;6.63;1.35;;;;;;;;;;5026657;28;20041;-47
2023/09/22 14:29:04;;;;;;;4.30;1.40;;;;;;;;;;5025122;28;20057;-46
2023/09/22 14:31:31;;;;;;;5.82;1.60;;;;;;;;;;5027817;28;20439;-48
2023/09/22 14:33:57;;;;;;;3.75;1.25;;;;;;;;;;5028234;28;20042;-49
2023/09/22 14:36:23;;;;;;;4.82;1.20;;;;;;;;;;5026662;28;20544;-47
2023/09/22 14:38:49;;;;;;;5.40;1.50;;;;;;;;;;5026868;28;20492;-50
2023/09/22 14:41:15;;;;;;;5.75;1.40;;;;;;;;;;5025754;28;20060;-47